Time;durP1;ratioP1;P1;durP2;ratioP2;P2;SDS_P1;SDS_P2;PMS_P1;PMS_P2;Temp;Humidity;BMP_temperature;BMP_pressure;BME280_temperature;BME280_humidity;BME280_pressure;Samples;Min_cycle;Max_cycle;Signal;HPM_P1;HPM_P2
2021/04/14 06:20:47;;;;;;;19.75;11.18;;;2.70;99.90;;;;;;5095445;23;20051;-95
2021/04/14 06:23:17;;;;;;;21.17;10.65;;;2.80;99.90;;;;;;4934682;29;20048;-95
2021/04/14 06:26:13;;;;;;;22.20;11.82;;;2.80;99.90;;;;;;4932135;29;20024;-95
2021/04/14 06:28:40;;;;;;;23.77;11.02;;;2.90;99.90;;;;;;4927553;29;20451;-96
2021/04/14 06:31:12;;;;;;;19.90;10.80;;;3.00;99.90;;;;;;4931562;29;20041;-96
2021/04/14 06:33:40;;;;;;;29.27;12.18;;;3.00;99.90;;;;;;4938446;29;20056;-95
2021/04/14 06:36:13;;;;;;;21.83;11.95;;;3.10;99.90;;;;;;4923694;29;20119;-95
2021/04/14 06:38:47;;;;;;;21.70;11.50;;;3.20;99.90;;;;;;4917485;29;20087;-94
2021/04/14 06:45:20;;;;;;;21.45;11.32;;;3.30;99.90;;;;;;4909342;29;20142;-94
2021/04/14 06:48:06;;;;;;;18.67;11.70;;;3.40;99.90;;;;;;4919899;29;20549;-93
2021/04/14 06:51:09;;;;;;;22.75;12.07;;;3.40;99.90;;;;;;4910425;29;20099;-95
2021/04/14 06:54:19;;;;;;;18.27;10.93;;;3.40;99.90;;;;;;4913505;29;20040;-95
2021/04/14 06:56:53;;;;;;;22.70;11.95;;;3.50;99.90;;;;;;4908797;29;20044;-95
2021/04/14 06:59:24;;;;;;;19.58;11.25;;;3.50;99.90;;;;;;4924605;29;20108;-95
2021/04/14 07:02:39;;;;;;;16.88;9.73;;;3.60;99.90;;;;;;4903071;29;20047;-94
2021/04/14 07:05:09;;;;;;;23.27;12.00;;;3.70;99.90;;;;;;4867311;29;20029;-94
2021/04/14 07:07:49;;;;;;;22.98;12.45;;;3.90;99.90;;;;;;4865292;29;20215;-95
2021/04/14 07:10:25;;;;;;;22.85;13.13;;;4.00;99.90;;;;;;4851107;29;20548;-95
2021/04/14 07:13:07;;;;;;;22.60;13.18;;;4.10;99.90;;;;;;4871912;29;20037;-94
2021/04/14 07:15:36;;;;;;;25.70;13.23;;;4.20;99.90;;;;;;4875768;29;20041;-95
2021/04/14 07:18:39;;;;;;;27.52;12.63;;;4.40;99.90;;;;;;4900376;29;20017;-94
2021/04/14 07:21:36;;;;;;;24.35;11.88;;;4.50;99.90;;;;;;4868837;29;20041;-95
2021/04/14 07:24:05;;;;;;;24.63;12.23;;;4.70;99.90;;;;;;4856907;29;20452;-94
2021/04/14 07:29:37;;;;;;;15.68;9.77;;;5.00;99.90;;;;;;4866327;29;20033;-95
2021/04/14 07:32:36;;;;;;;18.80;10.63;;;5.20;99.90;;;;;;4868677;29;20048;-94
2021/04/14 07:35:38;;;;;;;19.08;11.23;;;5.40;99.90;;;;;;4891006;29;20099;-94
2021/04/14 07:38:52;;;;;;;17.00;10.05;;;5.60;99.90;;;;;;4942945;29;20040;-94
2021/04/14 07:41:57;;;;;;;17.65;10.60;;;5.80;99.90;;;;;;4899661;29;20075;-95
2021/04/14 07:44:47;;;;;;;22.13;12.10;;;6.00;99.90;;;;;;4881424;29;20049;-95
2021/04/14 07:47:20;;;;;;;18.87;11.50;;;6.10;99.90;;;;;;4890460;29;20479;-95
2021/04/14 07:52:27;;;;;;;20.23;11.23;;;6.20;99.90;;;;;;4864430;29;20454;-94
2021/04/14 07:54:55;;;;;;;21.98;12.20;;;6.30;99.90;;;;;;4897777;29;20420;-94
2021/04/14 07:57:34;;;;;;;20.45;11.52;;;6.40;99.90;;;;;;4898852;29;20043;-94
2021/04/14 08:00:35;;;;;;;20.05;10.70;;;6.50;99.90;;;;;;4896850;29;20052;-94
2021/04/14 08:03:28;;;;;;;17.92;10.10;;;6.60;99.90;;;;;;4845800;29;20056;-94
2021/04/14 08:06:17;;;;;;;15.07;8.55;;;6.70;99.90;;;;;;4878193;29;20029;-93
2021/04/14 08:08:45;;;;;;;12.85;7.85;;;6.90;99.90;;;;;;4861137;29;20026;-93
2021/04/14 08:11:15;;;;;;;17.30;7.57;;;7.10;99.90;;;;;;4846374;29;20057;-93
2021/04/14 08:13:42;;;;;;;16.73;7.32;;;7.20;99.90;;;;;;4860363;29;20049;-92
2021/04/14 08:16:32;;;;;;;11.75;6.95;;;7.40;99.90;;;;;;4859936;29;20030;-94
2021/04/14 08:19:04;;;;;;;10.52;6.32;;;7.50;99.90;;;;;;4890590;29;20405;-93
2021/04/14 08:21:58;;;;;;;14.93;7.65;;;7.70;99.90;;;;;;4916642;29;20056;-93
2021/04/14 08:24:33;;;;;;;12.55;6.18;;;7.70;99.80;;;;;;4925977;29;20033;-93
2021/04/14 08:27:17;;;;;;;9.85;5.78;;;7.90;99.10;;;;;;4919831;29;20024;-94
2021/04/14 08:29:43;;;;;;;13.57;6.20;;;8.10;98.00;;;;;;4919897;29;20031;-94
2021/04/14 08:32:11;;;;;;;14.00;5.75;;;8.20;96.80;;;;;;4919738;29;20173;-93
2021/04/14 08:34:39;;;;;;;13.27;6.30;;;8.30;94.80;;;;;;4914496;29;20115;-93
2021/04/14 08:37:18;;;;;;;14.77;6.53;;;8.30;94.20;;;;;;4900908;29;20032;-92
2021/04/14 08:39:50;;;;;;;13.88;6.38;;;8.40;93.50;;;;;;4902005;29;20055;-93
2021/04/14 08:42:22;;;;;;;12.68;6.20;;;8.50;92.90;;;;;;4901358;29;20059;-92
2021/04/14 08:45:15;;;;;;;11.50;5.88;;;8.60;92.00;;;;;;4918238;29;20031;-94
2021/04/14 08:48:08;;;;;;;13.02;6.60;;;8.70;91.40;;;;;;4921181;29;20038;-92
2021/04/14 08:50:42;;;;;;;9.23;5.57;;;8.90;90.70;;;;;;4913921;29;20516;-93
2021/04/14 08:53:15;;;;;;;11.60;6.03;;;9.00;90.20;;;;;;4912698;29;20028;-94
2021/04/14 08:55:41;;;;;;;13.48;7.32;;;9.10;88.80;;;;;;4917835;29;20039;-95
2021/04/14 08:58:10;;;;;;;10.98;6.00;;;9.10;88.10;;;;;;4928171;29;20038;-94
2021/04/14 09:00:57;;;;;;;11.57;5.80;;;9.20;87.30;;;;;;4940731;29;20094;-93
2021/04/14 09:03:25;;;;;;;13.35;6.25;;;9.40;86.60;;;;;;4927652;29;20126;-94
2021/04/14 09:05:51;;;;;;;13.98;7.15;;;9.50;86.00;;;;;;4939403;29;20118;-95
2021/04/14 09:08:21;;;;;;;11.88;6.07;;;9.60;85.20;;;;;;4923608;29;20107;-93
2021/04/14 09:11:00;;;;;;;11.05;6.47;;;9.80;84.60;;;;;;4924158;29;20504;-94
2021/04/14 09:13:47;;;;;;;10.65;6.25;;;9.80;83.50;;;;;;4946398;29;20050;-93
2021/04/14 09:16:30;;;;;;;10.90;5.72;;;9.90;80.60;;;;;;4926626;29;20038;-94
2021/04/14 09:19:24;;;;;;;13.95;6.55;;;9.90;79.20;;;;;;4924083;29;20032;-94
2021/04/14 09:22:00;;;;;;;19.17;6.13;;;10.00;78.50;;;;;;4926199;29;20051;-94
2021/04/14 09:24:34;;;;;;;9.52;6.03;;;10.10;77.70;;;;;;4927526;29;20035;-93
2021/04/14 09:27:02;;;;;;;11.32;5.85;;;10.30;76.80;;;;;;4918189;29;20030;-93
2021/04/14 09:29:48;;;;;;;11.02;6.05;;;10.40;75.50;;;;;;4923850;29;20024;-94
2021/04/14 09:32:17;;;;;;;9.25;4.97;;;10.50;74.70;;;;;;4923923;29;20179;-92
2021/04/14 09:34:50;;;;;;;12.55;5.97;;;10.60;74.40;;;;;;4923880;29;20050;-95
2021/04/14 09:37:17;;;;;;;8.65;4.90;;;10.70;73.50;;;;;;4938636;29;20123;-92
2021/04/14 09:39:43;;;;;;;9.98;5.78;;;10.80;73.10;;;;;;4922123;29;20028;-94
2021/04/14 09:42:17;;;;;;;10.60;5.15;;;10.90;72.80;;;;;;4923002;29;20032;-93
2021/04/14 09:44:46;;;;;;;9.15;5.47;;;11.00;71.60;;;;;;4918649;29;20088;-93
2021/04/14 09:47:17;;;;;;;13.35;6.70;;;11.10;71.20;;;;;;4917731;29;20081;-96
2021/04/14 09:49:45;;;;;;;12.30;5.25;;;11.20;70.70;;;;;;4924714;29;20100;-94
2021/04/14 09:52:32;;;;;;;13.50;5.80;;;11.30;70.40;;;;;;4925462;29;20040;-94
2021/04/14 09:55:19;;;;;;;9.93;5.75;;;11.50;69.80;;;;;;4926679;29;20035;-94
2021/04/14 09:57:47;;;;;;;10.73;4.82;;;11.70;69.10;;;;;;4926242;29;20031;-94
2021/04/14 10:00:25;;;;;;;10.77;4.47;;;11.80;68.20;;;;;;4933789;29;20047;-93
2021/04/14 10:02:58;;;;;;;11.15;4.90;;;11.90;67.70;;;;;;4928849;29;20552;-93
2021/04/14 10:05:31;;;;;;;10.90;5.57;;;12.00;67.10;;;;;;4923513;29;20492;-93
2021/04/14 10:08:03;;;;;;;8.18;4.97;;;12.00;66.10;;;;;;4928962;29;20092;-94
2021/04/14 10:10:44;;;;;;;11.15;6.35;;;12.10;66.00;;;;;;4951776;29;20043;-95
2021/04/14 10:13:11;;;;;;;;;;;12.30;65.90;;;;;;4927327;29;20038;-91
2021/04/14 10:15:40;;;;;;;8.73;5.85;;;12.50;66.50;;;;;;4926907;29;19915;-90
2021/04/14 10:18:16;;;;;;;11.95;5.93;;;12.70;65.40;;;;;;4926373;29;20032;-93
2021/04/14 10:20:41;;;;;;;10.15;4.65;;;12.80;64.70;;;;;;4918981;29;20043;-94
2021/04/14 10:23:13;;;;;;;10.05;4.60;;;12.90;64.40;;;;;;4905615;29;20036;-94
2021/04/14 10:25:41;;;;;;;7.97;4.43;;;13.00;63.60;;;;;;4933425;29;20083;-95
2021/04/14 10:28:26;;;;;;;7.13;4.72;;;13.20;63.20;;;;;;4940060;29;20016;-94
2021/04/14 10:31:22;;;;;;;6.95;4.43;;;13.50;62.70;;;;;;4942540;29;20027;-93
2021/04/14 10:33:48;;;;;;;12.85;5.78;;;13.80;62.00;;;;;;4940308;29;20031;-93
2021/04/14 10:36:21;;;;;;;10.45;4.20;;;14.10;61.70;;;;;;4934028;29;20458;-95
2021/04/14 10:38:47;;;;;;;7.20;3.67;;;14.10;60.60;;;;;;4927286;29;20059;-93
2021/04/14 10:41:32;;;;;;;7.82;3.95;;;14.20;60.90;;;;;;4943550;29;20028;-92
2021/04/14 10:43:58;;;;;;;6.90;3.45;;;14.50;60.20;;;;;;4925675;29;20032;-94
2021/04/14 10:46:32;;;;;;;6.95;3.40;;;14.50;59.20;;;;;;4927939;29;20504;-94
2021/04/14 10:49:25;;;;;;;7.05;3.90;;;14.40;58.70;;;;;;4926811;29;20063;-93
2021/04/14 10:51:54;;;;;;;5.63;3.65;;;14.30;58.00;;;;;;4918180;29;20036;-94
2021/04/14 10:54:26;;;;;;;6.43;3.50;;;14.50;58.40;;;;;;4924172;29;20171;-94
2021/04/14 10:57:04;;;;;;;7.30;3.90;;;14.70;58.00;;;;;;4938772;29;20036;-93
2021/04/14 10:59:31;;;;;;;11.05;4.60;;;14.90;58.00;;;;;;4942073;29;20027;-90
2021/04/14 11:01:57;;;;;;;9.13;3.95;;;15.00;57.50;;;;;;4928529;29;20031;-93
2021/04/14 11:04:31;;;;;;;5.78;3.78;;;15.20;57.30;;;;;;4928757;29;20068;-94
2021/04/14 11:07:08;;;;;;;7.93;3.67;;;15.30;56.70;;;;;;4925374;29;20098;-93
2021/04/14 11:09:38;;;;;;;7.47;4.22;;;15.60;56.70;;;;;;4923924;29;20047;-94
2021/04/14 11:12:12;;;;;;;7.10;3.75;;;15.80;56.30;;;;;;4906827;29;20135;-92
2021/04/14 11:14:40;;;;;;;5.38;2.97;;;16.00;55.40;;;;;;4908382;29;20030;-93
2021/04/14 11:17:08;;;;;;;8.30;3.88;;;16.10;54.90;;;;;;4923809;29;20096;-92
2021/04/14 11:19:37;;;;;;;5.70;3.40;;;16.20;54.90;;;;;;4942793;29;20042;-94
2021/04/14 11:22:13;;;;;;;7.07;3.63;;;16.40;54.80;;;;;;4931913;29;20119;-95
2021/04/14 11:24:49;;;;;;;7.43;3.72;;;16.60;54.40;;;;;;4932904;29;20032;-95
2021/04/14 11:27:30;;;;;;;7.30;3.60;;;16.60;53.90;;;;;;4935696;29;20030;-94
2021/04/14 11:30:13;;;;;;;6.15;3.55;;;16.70;53.70;;;;;;4929530;29;20035;-94
2021/04/14 11:32:39;;;;;;;7.13;3.88;;;16.80;53.30;;;;;;4930004;29;20042;-95
2021/04/14 11:35:17;;;;;;;5.45;3.75;;;16.80;52.90;;;;;;4933723;29;20051;-94
2021/04/14 11:40:18;;;;;;;6.07;3.88;;;16.70;52.60;;;;;;5133377;23;20063;-93
2021/04/14 11:43:44;;;;;;;5.40;3.35;;;16.60;53.00;;;;;;4914837;29;20044;-93
2021/04/14 11:46:37;;;;;;;5.50;3.55;;;16.30;53.40;;;;;;5569076;23;20079;-95
2021/04/14 11:49:10;;;;;;;13.52;3.33;;;16.00;53.70;;;;;;4944401;29;20023;-95
2021/04/14 11:51:41;;;;;;;6.40;3.50;;;15.80;53.60;;;;;;4939808;29;20024;-95
2021/04/14 11:54:19;;;;;;;5.05;3.30;;;15.60;53.60;;;;;;4938353;29;20544;-94
2021/04/14 11:56:53;;;;;;;7.97;3.83;;;15.50;54.00;;;;;;4918332;29;20032;-94
2021/04/14 11:59:26;;;;;;;8.32;3.90;;;15.40;54.10;;;;;;4907465;29;20040;-94
2021/04/14 12:01:56;;;;;;;6.47;3.55;;;15.40;54.00;;;;;;4922841;29;20028;-93
2021/04/14 12:04:22;;;;;;;8.45;3.85;;;15.30;55.00;;;;;;4920905;29;20067;-94
2021/04/14 12:06:48;;;;;;;5.18;3.90;;;15.20;54.50;;;;;;4919145;29;20044;-93
2021/04/14 12:09:13;;;;;;;12.43;3.53;;;15.20;54.60;;;;;;4905041;29;20086;-93
2021/04/14 12:11:40;;;;;;;5.88;2.70;;;15.30;54.40;;;;;;4904293;29;20020;-94
2021/04/14 12:16:34;;;;;;;8.95;3.58;;;15.30;54.00;;;;;;4909304;29;20509;-93
2021/04/14 12:19:00;;;;;;;7.95;3.22;;;15.50;53.70;;;;;;4923493;29;20327;-93
2021/04/14 12:21:28;;;;;;;6.50;2.85;;;15.80;53.50;;;;;;4918048;29;20040;-93
2021/04/14 12:23:53;;;;;;;5.90;2.97;;;16.10;53.00;;;;;;4900835;29;20125;-92
2021/04/14 12:26:19;;;;;;;4.97;2.90;;;16.20;52.70;;;;;;4900766;29;20106;-93
2021/04/14 12:28:45;;;;;;;6.00;3.83;;;16.00;52.20;;;;;;4900471;29;20214;-94
2021/04/14 12:31:11;;;;;;;6.75;3.40;;;15.80;52.50;;;;;;4900678;29;20088;-93
2021/04/14 12:33:37;;;;;;;4.50;2.88;;;15.60;52.60;;;;;;4902912;29;20131;-93
2021/04/14 12:36:03;;;;;;;5.70;2.80;;;15.70;52.80;;;;;;4903633;29;20052;-93
2021/04/14 12:38:29;;;;;;;4.57;3.15;;;15.90;52.50;;;;;;4900239;29;20036;-93
2021/04/14 12:40:57;;;;;;;3.90;2.13;;;16.10;52.00;;;;;;4904311;29;20031;-94
2021/04/14 12:43:24;;;;;;;5.18;2.83;;;16.40;51.60;;;;;;4916587;29;20462;-94
2021/04/14 12:45:50;;;;;;;4.03;2.50;;;16.90;51.30;;;;;;4916676;29;20021;-93
2021/04/14 12:48:25;;;;;;;5.43;2.67;;;17.00;50.60;;;;;;4898793;29;20072;-93
2021/04/14 12:51:18;;;;;;;5.35;2.22;;;16.90;50.50;;;;;;4897900;29;20021;-92
2021/04/14 12:54:02;;;;;;;4.60;2.67;;;16.60;49.80;;;;;;4890276;29;20044;-93
2021/04/14 12:56:37;;;;;;;4.70;1.90;;;16.40;49.90;;;;;;4896620;29;20021;-93
2021/04/14 12:59:11;;;;;;;3.10;1.88;;;16.20;50.40;;;;;;4881845;29;20036;-93
2021/04/14 13:01:38;;;;;;;5.28;1.92;;;16.00;50.60;;;;;;4900935;29;20048;-94
2021/04/14 13:04:11;;;;;;;1.80;1.60;;;15.80;50.50;;;;;;4894386;29;20108;-93
2021/04/14 13:06:45;;;;;;;4.28;1.77;;;15.50;50.40;;;;;;4902356;29;20103;-93
2021/04/14 13:09:13;;;;;;;3.13;1.70;;;15.40;50.50;;;;;;4897460;29;20429;-94
2021/04/14 13:11:47;;;;;;;1.95;1.70;;;15.50;50.60;;;;;;4891139;29;20033;-93
2021/04/14 13:14:13;;;;;;;5.50;1.42;;;15.60;50.70;;;;;;4904157;29;20036;-93
2021/04/14 13:16:57;;;;;;;2.33;1.52;;;15.80;50.60;;;;;;4896546;29;20025;-91
2021/04/14 13:19:26;;;;;;;2.63;1.80;;;16.00;50.30;;;;;;4902729;29;20021;-93
2021/04/14 13:21:59;;;;;;;4.05;1.67;;;16.40;49.80;;;;;;4887125;29;20421;-93
2021/04/14 13:24:42;;;;;;;2.70;1.50;;;16.90;49.10;;;;;;4909130;29;20040;-94
2021/04/14 13:27:27;;;;;;;5.30;1.63;;;17.30;48.10;;;;;;4886826;29;20109;-95
2021/04/14 13:30:19;;;;;;;2.83;1.73;;;17.30;47.70;;;;;;4899988;29;20056;-94
2021/04/14 13:32:57;;;;;;;2.30;1.38;;;17.40;47.20;;;;;;4901668;29;20037;-94
2021/04/14 13:35:44;;;;;;;6.25;1.45;;;17.30;47.10;;;;;;4889348;29;20033;-94
2021/04/14 13:38:15;;;;;;;3.42;1.50;;;17.30;46.90;;;;;;4879298;29;20057;-94
2021/04/14 13:40:55;;;;;;;3.42;1.60;;;17.30;47.00;;;;;;4889652;29;20013;-94
2021/04/14 13:45:54;;;;;;;3.03;1.75;;;16.90;47.20;;;;;;4894939;29;20032;-94
2021/04/14 13:48:50;;;;;;;3.63;1.55;;;16.70;47.40;;;;;;4954193;29;20052;-95
2021/04/14 13:51:20;;;;;;;3.65;1.73;;;16.50;47.70;;;;;;4943323;29;20042;-95
2021/04/14 13:53:49;;;;;;;3.45;1.90;;;16.40;47.90;;;;;;4940718;29;20036;-95
2021/04/14 13:56:19;;;;;;;3.65;2.60;;;16.30;48.10;;;;;;4952176;29;20027;-93
2021/04/14 13:58:59;;;;;;;5.07;2.63;;;16.30;48.70;;;;;;4918900;29;20095;-95
2021/04/14 14:01:40;;;;;;;3.97;1.80;;;16.60;49.20;;;;;;4920390;29;20032;-94
2021/04/14 14:04:07;;;;;;;;;;;16.70;48.80;;;;;;4935921;29;20048;-95
2021/04/14 14:07:15;;;;;;;5.28;2.03;;;16.70;48.80;;;;;;4936745;29;19891;-95
2021/04/14 14:09:53;;;;;;;3.58;2.13;;;16.60;48.60;;;;;;4940313;29;20032;-94
2021/04/14 14:17:57;;;;;;;4.05;1.80;;;16.00;49.80;;;;;;5337330;23;20051;-93
2021/04/14 14:20:55;;;;;;;3.28;2.03;;;16.10;49.20;;;;;;4942682;29;20079;-94
2021/04/14 14:26:39;;;;;;;2.83;1.65;;;16.10;49.40;;;;;;4956996;29;20076;-94
2021/04/14 14:29:13;;;;;;;3.88;2.20;;;15.90;49.70;;;;;;4937172;29;20123;-95
2021/04/14 14:31:48;;;;;;;2.75;1.92;;;15.80;50.20;;;;;;4922966;29;20036;-95
2021/04/14 14:34:15;;;;;;;3.20;2.10;;;15.70;50.40;;;;;;4939237;29;20058;-94
2021/04/14 14:36:52;;;;;;;2.58;1.98;;;15.80;50.50;;;;;;4937510;29;20039;-94
2021/04/14 14:39:47;;;;;;;8.45;1.90;;;16.00;50.20;;;;;;4943080;28;20023;-96
2021/04/14 14:45:08;;;;;;;4.45;1.55;;;17.10;49.10;;;;;;5320142;23;20066;-95
2021/04/14 14:50:23;;;;;;;4.22;1.80;;;17.60;47.90;;;;;;5584337;23;20055;-95
2021/04/14 14:52:53;;;;;;;4.38;1.90;;;17.50;47.70;;;;;;4946139;29;20051;-94
2021/04/14 14:56:20;;;;;;;2.55;1.80;;;17.30;47.90;;;;;;4935361;29;20039;-95
2021/04/14 15:02:32;;;;;;;4.15;1.45;;;16.80;48.50;;;;;;4958657;29;20063;-93
2021/04/14 15:05:01;;;;;;;4.53;1.65;;;16.80;48.70;;;;;;4926199;29;20048;-95
2021/04/14 15:09:59;;;;;;;2.05;1.52;;;16.90;48.10;;;;;;4888542;29;20046;-94
2021/04/14 15:12:42;;;;;;;4.60;1.58;;;17.00;48.40;;;;;;4921288;29;20044;-94
2021/04/14 15:15:37;;;;;;;6.35;2.80;;;17.00;48.10;;;;;;4937629;29;20025;-95
2021/04/14 16:01:21;;;;;;;2.78;1.40;;;16.50;47.20;;;;;;4180674;23;20351;31
2021/04/14 16:04:05;;;;;;;4.57;1.30;;;16.70;47.10;;;;;;4884804;29;20060;-93
2021/04/14 16:06:36;;;;;;;3.10;1.25;;;17.00;47.20;;;;;;4901458;29;20021;-93
2021/04/14 16:09:10;;;;;;;6.30;1.40;;;17.10;46.70;;;;;;4902285;29;20029;-95
2021/04/14 16:11:41;;;;;;;2.33;1.45;;;17.10;46.70;;;;;;4901764;29;20033;-95
2021/04/14 16:45:28;;;;;;;3.50;1.40;;;16.40;47.10;;;;;;4940772;29;20090;-96
2021/04/14 16:47:54;;;;;;;3.35;1.33;;;16.20;47.40;;;;;;4942152;29;20128;-93
2021/04/14 16:50:21;;;;;;;2.47;1.63;;;16.10;47.90;;;;;;4929644;29;20038;-94
2021/04/14 16:52:47;;;;;;;4.65;1.20;;;16.10;48.00;;;;;;4933618;29;20020;-94
2021/04/14 16:55:14;;;;;;;10.02;1.77;;;16.20;48.00;;;;;;4922245;29;20034;-94
2021/04/14 16:57:40;;;;;;;1.98;1.42;;;16.20;47.80;;;;;;4920965;29;20040;-94
2021/04/14 17:00:08;;;;;;;2.78;1.42;;;16.20;47.90;;;;;;4925779;29;20119;-94
2021/04/14 17:02:35;;;;;;;3.33;1.52;;;16.20;47.80;;;;;;4917556;29;20059;-95
2021/04/14 17:05:02;;;;;;;2.88;1.42;;;16.40;48.20;;;;;;4925011;29;20060;-93
2021/04/14 17:07:29;;;;;;;2.60;1.27;;;16.30;48.10;;;;;;4950357;29;20023;-93
2021/04/14 17:09:55;;;;;;;2.78;1.23;;;16.40;48.50;;;;;;4929393;29;20493;-94
2021/04/14 17:12:21;;;;;;;3.50;1.73;;;16.40;48.20;;;;;;4927435;29;20141;-93
2021/04/14 17:14:47;;;;;;;3.92;1.58;;;16.10;48.00;;;;;;4921362;29;20154;-96
2021/04/14 17:17:13;;;;;;;7.13;1.38;;;16.00;48.50;;;;;;4922281;29;20130;-93
2021/04/14 17:19:38;;;;;;;4.25;1.63;;;15.80;49.10;;;;;;4921469;29;20135;-93
2021/04/14 17:22:05;;;;;;;2.72;1.52;;;15.70;49.60;;;;;;4922246;29;20044;-94
2021/04/14 17:24:30;;;;;;;4.97;1.77;;;15.60;49.80;;;;;;4923188;29;20032;-95
2021/04/14 17:26:56;;;;;;;7.07;1.60;;;15.40;50.00;;;;;;4923847;29;20026;-94
2021/04/14 17:29:22;;;;;;;7.53;1.65;;;15.20;50.20;;;;;;4927471;29;20032;-95
2021/04/14 17:31:49;;;;;;;42.50;3.60;;;15.10;50.60;;;;;;4927431;29;20098;-96
2021/04/14 17:34:15;;;;;;;6.20;1.60;;;14.90;50.90;;;;;;4927287;29;20065;-95
2021/04/14 17:36:42;;;;;;;7.40;1.80;;;14.70;51.20;;;;;;4928579;29;20035;-95
2021/04/14 17:39:12;;;;;;;11.98;1.77;;;14.60;51.40;;;;;;4927223;29;20023;-95
2021/04/14 17:41:40;;;;;;;5.63;1.45;;;14.50;51.50;;;;;;4927449;29;20114;-95
2021/04/14 17:44:05;;;;;;;12.75;1.95;;;14.30;51.80;;;;;;4928178;29;20059;-94
2021/04/14 17:46:32;;;;;;;11.43;2.42;;;14.20;52.00;;;;;;4923925;29;20111;-95
2021/04/14 17:49:00;;;;;;;6.25;1.30;;;14.10;52.20;;;;;;4909645;29;20086;-96
2021/04/14 17:51:29;;;;;;;1.27;0.93;;;14.10;52.60;;;;;;4927551;29;20019;-96
2021/04/14 17:53:56;;;;;;;3.17;1.63;;;14.00;52.60;;;;;;4929120;29;20028;-95
2021/04/14 17:56:22;;;;;;;2.67;1.58;;;13.90;52.70;;;;;;4935446;29;20083;-95
2021/04/14 17:58:49;;;;;;;1.67;1.40;;;13.70;52.80;;;;;;4912363;29;20024;-96
2021/04/14 18:01:16;;;;;;;4.30;1.30;;;13.60;53.00;;;;;;4928429;29;20032;-95
2021/04/14 18:03:43;;;;;;;3.45;1.20;;;13.40;53.10;;;;;;4928287;29;20046;-94
2021/04/14 18:06:10;;;;;;;3.47;1.30;;;13.20;53.50;;;;;;4926431;29;20027;-95
2021/04/14 18:08:36;;;;;;;1.42;1.00;;;13.00;54.20;;;;;;4909376;29;20036;-93
2021/04/14 18:11:02;;;;;;;2.22;0.90;;;12.70;54.70;;;;;;4924702;29;20027;-94
2021/04/14 18:13:28;;;;;;;2.00;1.00;;;12.50;55.20;;;;;;4923791;29;20032;-94
2021/04/14 18:15:58;;;;;;;5.05;1.38;;;12.40;55.50;;;;;;4926493;29;20028;-94
2021/04/14 18:18:30;;;;;;;3.85;1.20;;;12.20;56.00;;;;;;4923601;29;20028;-92
2021/04/14 18:20:56;;;;;;;3.17;1.60;;;12.00;56.40;;;;;;4919752;29;20047;-93
2021/04/14 18:23:24;;;;;;;2.70;1.25;;;11.80;56.70;;;;;;4907051;29;20042;-93
2021/04/14 18:25:51;;;;;;;2.75;1.00;;;11.70;56.90;;;;;;4907736;29;20183;-92
2021/04/14 18:28:17;;;;;;;4.10;1.40;;;11.60;57.20;;;;;;4918379;29;20537;-92
2021/04/14 18:30:43;;;;;;;8.50;1.40;;;11.50;57.50;;;;;;4924742;29;20034;-93
2021/04/14 18:33:09;;;;;;;5.53;1.38;;;11.50;58.00;;;;;;4918958;29;20115;-92
2021/04/14 18:35:34;;;;;;;3.88;1.38;;;11.40;58.00;;;;;;4924854;29;20060;-92
2021/04/14 18:38:00;;;;;;;4.40;1.35;;;11.30;58.10;;;;;;4924821;29;20027;-93
2021/04/14 18:40:27;;;;;;;3.63;1.10;;;11.30;58.30;;;;;;4925036;29;20031;-93
2021/04/14 18:42:54;;;;;;;2.00;1.17;;;11.10;58.50;;;;;;4925076;29;20130;-92
2021/04/14 18:45:22;;;;;;;2.53;1.00;;;11.00;58.60;;;;;;4925691;29;20123;-92
2021/04/14 18:47:49;;;;;;;5.78;1.02;;;11.00;58.70;;;;;;4924255;29;20036;-92
2021/04/14 18:50:18;;;;;;;2.97;1.30;;;10.80;59.00;;;;;;4924925;29;20023;-93
2021/04/14 18:52:45;;;;;;;2.30;0.93;;;10.80;59.30;;;;;;4924363;29;20035;-92
2021/04/14 18:55:13;;;;;;;5.45;1.35;;;10.70;59.60;;;;;;4924017;29;20118;-92
2021/04/14 18:57:39;;;;;;;1.85;1.10;;;10.60;60.00;;;;;;4920081;29;20122;-92
2021/04/14 19:00:08;;;;;;;4.90;1.75;;;10.50;60.20;;;;;;4926829;29;20055;-94
2021/04/14 19:02:34;;;;;;;4.63;1.17;;;10.40;60.40;;;;;;4928806;29;20048;-92
2021/04/14 19:04:59;;;;;;;5.40;1.23;;;10.30;60.80;;;;;;4927818;29;20035;-93
2021/04/14 19:07:25;;;;;;;3.83;1.10;;;10.20;61.10;;;;;;4926719;29;20039;-89
2021/04/14 19:09:51;;;;;;;7.13;1.77;;;10.10;61.50;;;;;;4923355;29;20039;-94
2021/04/14 19:12:17;;;;;;;3.53;1.20;;;10.00;61.90;;;;;;4925001;29;20032;-94
2021/04/14 19:14:43;;;;;;;4.97;1.40;;;9.90;62.20;;;;;;4924198;29;20047;-93
2021/04/14 19:17:09;;;;;;;7.20;1.52;;;9.80;62.50;;;;;;4926504;29;20034;-92
2021/04/14 19:19:35;;;;;;;4.88;1.55;;;9.80;62.80;;;;;;4919991;29;20028;-92
2021/04/14 19:22:03;;;;;;;3.92;1.38;;;9.70;63.00;;;;;;4919129;29;20083;-91
2021/04/14 19:24:32;;;;;;;4.53;1.40;;;9.60;63.30;;;;;;4923687;29;20024;-94
2021/04/14 19:26:59;;;;;;;1.77;1.25;;;9.50;63.80;;;;;;4923378;29;20034;-95
2021/04/14 19:29:25;;;;;;;10.90;2.65;;;9.50;64.00;;;;;;4924576;29;20039;-91
2021/04/14 19:31:51;;;;;;;3.30;1.50;;;9.50;64.30;;;;;;4926001;29;20051;-88
2021/04/14 19:34:17;;;;;;;4.80;1.27;;;9.50;64.50;;;;;;4926333;29;20027;-89
2021/04/14 19:36:42;;;;;;;3.47;1.48;;;9.50;64.60;;;;;;4920359;29;20043;-89
2021/04/14 19:39:09;;;;;;;3.15;2.00;;;9.40;64.80;;;;;;4918747;29;20031;-90
2021/04/14 19:41:34;;;;;;;4.32;1.65;;;9.40;65.10;;;;;;4920483;28;20067;-92
2021/04/14 19:44:00;;;;;;;5.93;1.42;;;9.40;65.30;;;;;;4938404;29;20067;-91
2021/04/14 19:46:26;;;;;;;5.15;1.77;;;9.40;65.40;;;;;;4922696;29;20106;-92
2021/04/14 19:48:52;;;;;;;3.70;1.80;;;9.30;65.50;;;;;;4923552;29;20032;-90
2021/04/14 19:51:18;;;;;;;5.85;1.60;;;9.20;65.70;;;;;;4922781;29;20032;-91
2021/04/14 19:53:44;;;;;;;3.55;1.50;;;9.20;66.60;;;;;;4922962;29;20033;-92
2021/04/14 19:56:10;;;;;;;5.10;1.45;;;9.10;66.10;;;;;;4923275;29;20031;-92
2021/04/14 19:58:36;;;;;;;2.60;1.38;;;9.10;66.30;;;;;;4922930;29;20389;-91
2021/04/14 20:01:02;;;;;;;3.30;1.63;;;9.00;66.50;;;;;;4921656;29;20398;-90
2021/04/14 20:03:27;;;;;;;5.00;1.77;;;9.00;66.60;;;;;;4920090;29;20497;-90
2021/04/14 20:05:53;;;;;;;6.72;1.85;;;8.90;66.80;;;;;;4920803;29;20030;-90
2021/04/14 20:08:19;;;;;;;9.82;2.38;;;8.80;67.00;;;;;;4917765;29;20111;-90
2021/04/14 20:10:46;;;;;;;8.23;2.00;;;8.70;67.10;;;;;;4914785;29;20019;-90
2021/04/14 20:13:13;;;;;;;4.88;2.08;;;8.50;67.20;;;;;;4911744;29;20473;-90
2021/04/14 20:15:40;;;;;;;4.47;2.30;;;8.40;67.50;;;;;;4920653;29;20047;-89
2021/04/14 20:18:08;;;;;;;6.82;1.88;;;8.30;67.90;;;;;;4919418;29;20027;-90
2021/04/14 20:20:34;;;;;;;5.10;1.92;;;8.10;68.20;;;;;;4920196;29;20064;-90
2021/04/14 20:23:00;;;;;;;4.80;1.75;;;7.90;68.40;;;;;;4920730;29;20035;-90
2021/04/14 20:25:29;;;;;;;5.53;1.88;;;7.70;68.70;;;;;;4916391;29;20027;-90
2021/04/14 20:27:55;;;;;;;3.72;2.00;;;7.60;69.20;;;;;;4923376;29;20020;-89
2021/04/14 20:30:24;;;;;;;7.88;1.90;;;7.40;69.50;;;;;;4920192;29;20035;-89
2021/04/14 20:32:50;;;;;;;7.03;1.98;;;7.10;69.80;;;;;;4920233;29;20027;-89
2021/04/14 20:35:16;;;;;;;6.72;2.53;;;7.00;70.90;;;;;;4919305;29;20103;-88
2021/04/14 20:37:42;;;;;;;4.30;1.83;;;6.80;70.50;;;;;;4919090;29;20489;-89
2021/04/14 20:40:12;;;;;;;4.72;2.08;;;6.80;70.90;;;;;;4917461;29;20024;-89
2021/04/14 20:42:37;;;;;;;3.92;1.88;;;6.80;71.10;;;;;;4918794;29;20028;-89
2021/04/14 20:45:06;;;;;;;3.65;1.50;;;6.70;71.10;;;;;;4919271;29;20034;-89
2021/04/14 20:47:32;;;;;;;5.72;2.10;;;6.70;71.10;;;;;;4918923;29;20031;-89
2021/04/14 20:49:58;;;;;;;3.40;2.00;;;6.60;71.30;;;;;;4918138;29;20023;-90
2021/04/14 20:52:23;;;;;;;7.15;1.98;;;6.60;71.40;;;;;;4919015;29;20028;-89
2021/04/14 20:54:49;;;;;;;4.35;2.10;;;6.40;71.50;;;;;;4919161;29;20023;-89
2021/04/14 20:57:15;;;;;;;9.90;1.85;;;6.30;71.70;;;;;;4918653;29;20035;-89
2021/04/14 20:59:41;;;;;;;4.70;1.80;;;6.20;71.90;;;;;;4918731;29;20374;-91
2021/04/14 21:02:07;;;;;;;2.75;1.40;;;6.10;72.20;;;;;;4915302;29;20044;-90
2021/04/14 21:04:33;;;;;;;5.45;1.83;;;6.10;73.10;;;;;;4935599;29;20140;-91
2021/04/14 21:07:01;;;;;;;3.58;1.50;;;6.10;72.60;;;;;;4935910;29;20051;-89
2021/04/14 21:09:27;;;;;;;2.92;1.20;;;6.00;72.60;;;;;;4919413;29;20024;-91
2021/04/14 21:11:53;;;;;;;1.83;1.05;;;5.90;72.20;;;;;;4924703;29;20042;-90
2021/04/14 21:14:20;;;;;;;3.95;1.00;;;5.80;72.80;;;;;;4922741;29;20080;-89
2021/04/14 21:16:47;;;;;;;5.47;1.48;;;5.80;73.00;;;;;;4932982;29;20036;-91
2021/04/14 21:19:12;;;;;;;6.05;1.33;;;5.90;73.20;;;;;;4912218;29;20055;-92
2021/04/14 21:21:38;;;;;;;5.88;1.13;;;5.80;73.10;;;;;;4920892;29;20083;-91
2021/04/14 21:24:05;;;;;;;2.10;1.00;;;5.80;73.30;;;;;;4921449;29;20058;-92
2021/04/14 21:26:31;;;;;;;7.68;1.58;;;5.80;73.40;;;;;;4919803;29;20031;-92
2021/04/14 21:28:57;;;;;;;2.65;1.45;;;5.70;73.50;;;;;;4920248;29;20032;-92